sensor_id;sensor_type;location;lat;lon;timestamp;P1;durP1;ratioP1;P2;durP2;ratioP2
68507;SDS011;55510;49.560;19.090;2023-02-28T00:00:30;57.20;;;14.63;;
68507;SDS011;55510;49.560;19.090;2023-02-28T00:03:48;55.90;;;15.47;;
68507;SDS011;55510;49.560;19.090;2023-02-28T00:06:49;45.28;;;13.25;;
68507;SDS011;55510;49.560;19.090;2023-02-28T00:09:50;33.00;;;11.30;;
68507;SDS011;55510;49.560;19.090;2023-02-28T00:12:50;35.13;;;11.13;;
68507;SDS011;55510;49.560;19.090;2023-02-28T00:16:01;28.52;;;9.82;;
68507;SDS011;55510;49.560;19.090;2023-02-28T00:19:04;29.07;;;10.00;;
68507;SDS011;55510;49.560;19.090;2023-02-28T00:22:05;32.15;;;9.65;;
68507;SDS011;55510;49.560;19.090;2023-02-28T00:25:06;34.40;;;10.67;;
68507;SDS011;55510;49.560;19.090;2023-02-28T00:28:08;32.67;;;11.43;;
68507;SDS011;55510;49.560;19.090;2023-02-28T00:31:09;36.65;;;12.73;;
68507;SDS011;55510;49.560;19.090;2023-02-28T00:34:09;33.73;;;11.13;;
68507;SDS011;55510;49.560;19.090;2023-02-28T00:37:10;41.15;;;13.68;;
68507;SDS011;55510;49.560;19.090;2023-02-28T00:40:12;37.47;;;12.90;;
68507;SDS011;55510;49.560;19.090;2023-02-28T00:43:13;79.10;;;23.98;;
68507;SDS011;55510;49.560;19.090;2023-02-28T00:46:13;55.00;;;15.87;;
68507;SDS011;55510;49.560;19.090;2023-02-28T00:49:14;58.78;;;18.63;;
68507;SDS011;55510;49.560;19.090;2023-02-28T00:52:15;79.30;;;23.53;;
68507;SDS011;55510;49.560;19.090;2023-02-28T00:55:15;50.33;;;16.70;;
68507;SDS011;55510;49.560;19.090;2023-02-28T00:58:16;42.37;;;14.83;;
68507;SDS011;55510;49.560;19.090;2023-02-28T01:01:17;45.92;;;14.43;;
68507;SDS011;55510;49.560;19.090;2023-02-28T01:04:17;57.27;;;17.43;;
68507;SDS011;55510;49.560;19.090;2023-02-28T01:07:18;60.83;;;16.50;;
68507;SDS011;55510;49.560;19.090;2023-02-28T01:10:19;46.80;;;13.90;;
68507;SDS011;55510;49.560;19.090;2023-02-28T01:13:21;61.15;;;17.23;;
68507;SDS011;55510;49.560;19.090;2023-02-28T01:16:23;68.53;;;20.50;;
68507;SDS011;55510;49.560;19.090;2023-02-28T01:19:24;72.67;;;21.30;;
68507;SDS011;55510;49.560;19.090;2023-02-28T01:22:25;63.13;;;17.83;;
68507;SDS011;55510;49.560;19.090;2023-02-28T01:25:25;41.73;;;12.23;;
68507;SDS011;55510;49.560;19.090;2023-02-28T01:28:26;29.85;;;11.23;;
68507;SDS011;55510;49.560;19.090;2023-02-28T01:31:27;40.40;;;11.73;;
68507;SDS011;55510;49.560;19.090;2023-02-28T01:34:27;40.38;;;13.20;;
68507;SDS011;55510;49.560;19.090;2023-02-28T01:37:28;38.53;;;11.70;;
68507;SDS011;55510;49.560;19.090;2023-02-28T01:40:29;24.97;;;8.73;;
68507;SDS011;55510;49.560;19.090;2023-02-28T01:43:52;24.90;;;7.80;;
68507;SDS011;55510;49.560;19.090;2023-02-28T01:46:50;23.30;;;8.35;;
68507;SDS011;55510;49.560;19.090;2023-02-28T01:49:51;25.17;;;8.13;;
68507;SDS011;55510;49.560;19.090;2023-02-28T01:52:53;21.17;;;7.05;;
68507;SDS011;55510;49.560;19.090;2023-02-28T01:55:58;25.35;;;8.43;;
68507;SDS011;55510;49.560;19.090;2023-02-28T01:58:58;19.57;;;6.33;;
68507;SDS011;55510;49.560;19.090;2023-02-28T02:01:59;12.90;;;5.15;;
68507;SDS011;55510;49.560;19.090;2023-02-28T02:05:08;19.33;;;7.05;;
68507;SDS011;55510;49.560;19.090;2023-02-28T02:08:17;13.20;;;5.72;;
68507;SDS011;55510;49.560;19.090;2023-02-28T02:11:21;18.03;;;6.57;;
68507;SDS011;55510;49.560;19.090;2023-02-28T02:17:37;17.58;;;6.18;;
68507;SDS011;55510;49.560;19.090;2023-02-28T02:38:53;16.10;;;5.65;;
68507;SDS011;55510;49.560;19.090;2023-02-28T02:42:03;13.68;;;5.32;;
68507;SDS011;55510;49.560;19.090;2023-02-28T02:45:17;17.30;;;6.13;;
68507;SDS011;55510;49.560;19.090;2023-02-28T02:48:25;15.27;;;4.77;;
68507;SDS011;55510;49.560;19.090;2023-02-28T02:51:29;14.80;;;4.60;;
68507;SDS011;55510;49.560;19.090;2023-02-28T02:54:34;14.82;;;5.55;;
68507;SDS011;55510;49.560;19.090;2023-02-28T02:57:38;17.10;;;6.47;;
68507;SDS011;55510;49.560;19.090;2023-02-28T03:00:55;14.20;;;5.40;;
68507;SDS011;55510;49.560;19.090;2023-02-28T03:04:01;12.38;;;4.70;;
68507;SDS011;55510;49.560;19.090;2023-02-28T03:07:05;10.38;;;4.60;;
68507;SDS011;55510;49.560;19.090;2023-02-28T03:10:25;12.20;;;4.17;;
68507;SDS011;55510;49.560;19.090;2023-02-28T03:20:39;10.32;;;4.20;;
68507;SDS011;55510;49.560;19.090;2023-02-28T03:23:55;13.55;;;3.88;;
68507;SDS011;55510;49.560;19.090;2023-02-28T03:27:05;9.97;;;4.30;;
68507;SDS011;55510;49.560;19.090;2023-02-28T03:33:32;15.75;;;5.18;;
68507;SDS011;55510;49.560;19.090;2023-02-28T03:36:39;18.70;;;6.10;;
68507;SDS011;55510;49.560;19.090;2023-02-28T03:39:45;17.23;;;6.30;;
68507;SDS011;55510;49.560;19.090;2023-02-28T03:42:50;17.53;;;6.17;;
68507;SDS011;55510;49.560;19.090;2023-02-28T03:45:55;16.45;;;6.40;;
68507;SDS011;55510;49.560;19.090;2023-02-28T03:49:01;20.13;;;7.93;;
68507;SDS011;55510;49.560;19.090;2023-02-28T03:52:09;23.50;;;7.25;;
68507;SDS011;55510;49.560;19.090;2023-02-28T03:55:10;21.17;;;8.00;;
68507;SDS011;55510;49.560;19.090;2023-02-28T04:04:41;26.40;;;9.35;;
68507;SDS011;55510;49.560;19.090;2023-02-28T04:07:45;26.23;;;9.43;;
68507;SDS011;55510;49.560;19.090;2023-02-28T04:10:47;22.92;;;9.20;;
68507;SDS011;55510;49.560;19.090;2023-02-28T04:13:54;24.08;;;8.80;;
68507;SDS011;55510;49.560;19.090;2023-02-28T04:16:55;22.80;;;9.20;;
68507;SDS011;55510;49.560;19.090;2023-02-28T04:19:55;26.05;;;9.65;;
68507;SDS011;55510;49.560;19.090;2023-02-28T04:22:57;21.80;;;9.13;;
68507;SDS011;55510;49.560;19.090;2023-02-28T04:25:58;21.67;;;9.77;;
68507;SDS011;55510;49.560;19.090;2023-02-28T04:28:59;20.73;;;9.07;;
68507;SDS011;55510;49.560;19.090;2023-02-28T04:32:02;16.43;;;7.33;;
68507;SDS011;55510;49.560;19.090;2023-02-28T04:35:04;19.50;;;7.85;;
68507;SDS011;55510;49.560;19.090;2023-02-28T04:38:05;15.98;;;6.60;;
68507;SDS011;55510;49.560;19.090;2023-02-28T04:41:06;17.63;;;6.83;;
68507;SDS011;55510;49.560;19.090;2023-02-28T04:44:06;18.27;;;7.00;;
68507;SDS011;55510;49.560;19.090;2023-02-28T04:47:07;18.20;;;6.93;;
68507;SDS011;55510;49.560;19.090;2023-02-28T04:50:08;15.95;;;6.13;;
68507;SDS011;55510;49.560;19.090;2023-02-28T04:53:09;14.80;;;6.78;;
68507;SDS011;55510;49.560;19.090;2023-02-28T04:56:11;19.33;;;7.60;;
68507;SDS011;55510;49.560;19.090;2023-02-28T04:59:13;23.33;;;9.32;;
68507;SDS011;55510;49.560;19.090;2023-02-28T05:02:14;22.33;;;8.60;;
68507;SDS011;55510;49.560;19.090;2023-02-28T05:05:15;23.67;;;8.88;;
68507;SDS011;55510;49.560;19.090;2023-02-28T05:08:18;28.27;;;10.07;;
68507;SDS011;55510;49.560;19.090;2023-02-28T05:11:23;26.23;;;10.57;;
68507;SDS011;55510;49.560;19.090;2023-02-28T05:14:26;43.40;;;14.52;;
68507;SDS011;55510;49.560;19.090;2023-02-28T05:17:26;39.87;;;13.67;;
68507;SDS011;55510;49.560;19.090;2023-02-28T05:20:27;41.47;;;14.65;;
68507;SDS011;55510;49.560;19.090;2023-02-28T05:23:28;48.00;;;16.60;;
68507;SDS011;55510;49.560;19.090;2023-02-28T05:26:29;51.67;;;17.52;;
68507;SDS011;55510;49.560;19.090;2023-02-28T05:29:30;46.37;;;15.77;;
68507;SDS011;55510;49.560;19.090;2023-02-28T05:32:31;43.67;;;16.13;;
68507;SDS011;55510;49.560;19.090;2023-02-28T05:35:32;45.63;;;15.17;;
68507;SDS011;55510;49.560;19.090;2023-02-28T05:38:33;37.65;;;14.38;;
68507;SDS011;55510;49.560;19.090;2023-02-28T05:41:34;34.40;;;12.00;;
68507;SDS011;55510;49.560;19.090;2023-02-28T05:44:35;27.38;;;11.02;;
68507;SDS011;55510;49.560;19.090;2023-02-28T05:47:36;40.92;;;15.55;;
68507;SDS011;55510;49.560;19.090;2023-02-28T05:50:37;33.63;;;15.10;;
68507;SDS011;55510;49.560;19.090;2023-02-28T05:53:38;34.77;;;14.00;;
68507;SDS011;55510;49.560;19.090;2023-02-28T05:56:38;38.80;;;13.68;;
68507;SDS011;55510;49.560;19.090;2023-02-28T05:59:40;38.20;;;14.80;;
68507;SDS011;55510;49.560;19.090;2023-02-28T06:02:41;57.33;;;18.03;;
68507;SDS011;55510;49.560;19.090;2023-02-28T06:05:41;50.20;;;15.93;;
68507;SDS011;55510;49.560;19.090;2023-02-28T06:08:42;49.10;;;15.70;;
68507;SDS011;55510;49.560;19.090;2023-02-28T06:11:44;42.95;;;13.68;;
68507;SDS011;55510;49.560;19.090;2023-02-28T06:14:45;45.33;;;13.97;;
68507;SDS011;55510;49.560;19.090;2023-02-28T06:17:46;35.13;;;12.75;;
68507;SDS011;55510;49.560;19.090;2023-02-28T06:20:53;29.60;;;11.40;;
68507;SDS011;55510;49.560;19.090;2023-02-28T06:23:55;28.75;;;10.57;;
68507;SDS011;55510;49.560;19.090;2023-02-28T06:26:56;32.22;;;12.25;;
68507;SDS011;55510;49.560;19.090;2023-02-28T06:29:59;27.80;;;11.18;;
68507;SDS011;55510;49.560;19.090;2023-02-28T06:33:00;30.30;;;12.87;;
68507;SDS011;55510;49.560;19.090;2023-02-28T06:36:00;30.85;;;11.82;;
68507;SDS011;55510;49.560;19.090;2023-02-28T06:39:01;29.07;;;11.53;;
68507;SDS011;55510;49.560;19.090;2023-02-28T06:42:02;28.27;;;10.52;;
68507;SDS011;55510;49.560;19.090;2023-02-28T06:45:03;25.23;;;9.10;;
68507;SDS011;55510;49.560;19.090;2023-02-28T06:48:09;73.85;;;26.20;;
68507;SDS011;55510;49.560;19.090;2023-02-28T06:51:15;64.65;;;25.10;;
68507;SDS011;55510;49.560;19.090;2023-02-28T06:54:18;48.47;;;19.27;;
68507;SDS011;55510;49.560;19.090;2023-02-28T06:57:18;36.85;;;14.02;;
68507;SDS011;55510;49.560;19.090;2023-02-28T07:00:19;33.93;;;14.33;;
68507;SDS011;55510;49.560;19.090;2023-02-28T07:03:20;31.70;;;12.18;;
68507;SDS011;55510;49.560;19.090;2023-02-28T07:06:21;22.20;;;8.65;;
68507;SDS011;55510;49.560;19.090;2023-02-28T07:09:22;20.87;;;7.93;;
68507;SDS011;55510;49.560;19.090;2023-02-28T07:12:23;18.73;;;7.67;;
68507;SDS011;55510;49.560;19.090;2023-02-28T07:15:24;17.83;;;7.32;;
68507;SDS011;55510;49.560;19.090;2023-02-28T07:18:25;18.53;;;8.00;;
68507;SDS011;55510;49.560;19.090;2023-02-28T07:21:26;24.03;;;10.10;;
68507;SDS011;55510;49.560;19.090;2023-02-28T07:24:27;58.75;;;25.15;;
68507;SDS011;55510;49.560;19.090;2023-02-28T07:27:28;90.40;;;33.78;;
68507;SDS011;55510;49.560;19.090;2023-02-28T07:30:29;34.30;;;12.97;;
68507;SDS011;55510;49.560;19.090;2023-02-28T07:33:29;25.07;;;10.27;;
68507;SDS011;55510;49.560;19.090;2023-02-28T07:36:30;26.05;;;10.45;;
68507;SDS011;55510;49.560;19.090;2023-02-28T07:39:31;25.60;;;9.67;;
68507;SDS011;55510;49.560;19.090;2023-02-28T07:42:32;29.80;;;12.00;;
68507;SDS011;55510;49.560;19.090;2023-02-28T07:45:35;24.90;;;10.43;;
68507;SDS011;55510;49.560;19.090;2023-02-28T07:48:36;20.83;;;8.45;;
68507;SDS011;55510;49.560;19.090;2023-02-28T07:51:37;25.57;;;10.47;;
68507;SDS011;55510;49.560;19.090;2023-02-28T07:54:38;22.38;;;7.82;;
68507;SDS011;55510;49.560;19.090;2023-02-28T07:57:39;18.67;;;6.77;;
68507;SDS011;55510;49.560;19.090;2023-02-28T08:00:41;22.13;;;7.97;;
68507;SDS011;55510;49.560;19.090;2023-02-28T08:03:41;22.20;;;7.87;;
68507;SDS011;55510;49.560;19.090;2023-02-28T08:06:42;20.40;;;8.40;;
68507;SDS011;55510;49.560;19.090;2023-02-28T08:09:43;12.02;;;4.90;;
68507;SDS011;55510;49.560;19.090;2023-02-28T08:12:44;15.63;;;6.20;;
68507;SDS011;55510;49.560;19.090;2023-02-28T08:15:45;22.52;;;9.98;;
68507;SDS011;55510;49.560;19.090;2023-02-28T08:18:48;13.63;;;5.00;;
68507;SDS011;55510;49.560;19.090;2023-02-28T08:21:50;10.27;;;4.63;;
68507;SDS011;55510;49.560;19.090;2023-02-28T08:24:51;13.48;;;6.68;;
68507;SDS011;55510;49.560;19.090;2023-02-28T08:27:52;11.33;;;5.17;;
68507;SDS011;55510;49.560;19.090;2023-02-28T08:30:53;13.10;;;5.88;;
68507;SDS011;55510;49.560;19.090;2023-02-28T08:33:54;14.80;;;7.70;;
68507;SDS011;55510;49.560;19.090;2023-02-28T08:36:59;9.63;;;5.30;;
68507;SDS011;55510;49.560;19.090;2023-02-28T08:39:59;13.43;;;6.73;;
68507;SDS011;55510;49.560;19.090;2023-02-28T08:43:00;23.95;;;12.45;;
68507;SDS011;55510;49.560;19.090;2023-02-28T08:46:01;17.33;;;9.70;;
68507;SDS011;55510;49.560;19.090;2023-02-28T08:49:02;21.83;;;12.68;;
68507;SDS011;55510;49.560;19.090;2023-02-28T08:52:03;14.70;;;8.65;;
68507;SDS011;55510;49.560;19.090;2023-02-28T08:55:04;11.60;;;5.80;;
68507;SDS011;55510;49.560;19.090;2023-02-28T08:58:05;14.23;;;8.38;;
68507;SDS011;55510;49.560;19.090;2023-02-28T09:01:13;16.87;;;8.93;;
68507;SDS011;55510;49.560;19.090;2023-02-28T09:04:15;16.93;;;9.30;;
68507;SDS011;55510;49.560;19.090;2023-02-28T09:07:16;18.77;;;11.43;;
68507;SDS011;55510;49.560;19.090;2023-02-28T09:10:17;14.67;;;9.53;;
68507;SDS011;55510;49.560;19.090;2023-02-28T09:13:18;16.15;;;11.23;;
68507;SDS011;55510;49.560;19.090;2023-02-28T09:16:19;13.00;;;7.25;;
68507;SDS011;55510;49.560;19.090;2023-02-28T09:19:20;15.77;;;7.90;;
68507;SDS011;55510;49.560;19.090;2023-02-28T09:22:20;14.00;;;6.97;;
68507;SDS011;55510;49.560;19.090;2023-02-28T09:25:21;18.43;;;12.33;;
68507;SDS011;55510;49.560;19.090;2023-02-28T09:28:22;17.10;;;10.07;;
68507;SDS011;55510;49.560;19.090;2023-02-28T09:31:24;14.40;;;6.90;;
68507;SDS011;55510;49.560;19.090;2023-02-28T09:34:27;11.23;;;7.43;;
68507;SDS011;55510;49.560;19.090;2023-02-28T09:37:31;14.67;;;7.57;;
68507;SDS011;55510;49.560;19.090;2023-02-28T09:40:31;13.15;;;6.82;;
68507;SDS011;55510;49.560;19.090;2023-02-28T09:43:38;13.30;;;6.72;;
68507;SDS011;55510;49.560;19.090;2023-02-28T09:46:44;12.50;;;6.83;;
68507;SDS011;55510;49.560;19.090;2023-02-28T09:49:48;13.43;;;7.15;;
68507;SDS011;55510;49.560;19.090;2023-02-28T09:52:49;11.05;;;6.55;;
68507;SDS011;55510;49.560;19.090;2023-02-28T09:55:51;11.05;;;6.97;;
68507;SDS011;55510;49.560;19.090;2023-02-28T09:59:09;14.30;;;9.63;;
68507;SDS011;55510;49.560;19.090;2023-02-28T10:05:52;20.60;;;12.00;;
68507;SDS011;55510;49.560;19.090;2023-02-28T10:09:05;14.27;;;9.02;;
68507;SDS011;55510;49.560;19.090;2023-02-28T10:12:13;9.68;;;5.93;;
68507;SDS011;55510;49.560;19.090;2023-02-28T10:15:16;11.10;;;5.57;;
68507;SDS011;55510;49.560;19.090;2023-02-28T10:18:19;10.83;;;5.57;;
68507;SDS011;55510;49.560;19.090;2023-02-28T10:21:28;21.08;;;13.45;;
68507;SDS011;55510;49.560;19.090;2023-02-28T10:24:50;13.38;;;7.80;;
68507;SDS011;55510;49.560;19.090;2023-02-28T10:28:07;12.55;;;7.38;;
68507;SDS011;55510;49.560;19.090;2023-02-28T10:31:17;11.37;;;6.90;;
68507;SDS011;55510;49.560;19.090;2023-02-28T10:34:19;11.93;;;6.97;;
68507;SDS011;55510;49.560;19.090;2023-02-28T10:37:20;12.43;;;7.85;;
68507;SDS011;55510;49.560;19.090;2023-02-28T10:43:22;10.75;;;6.25;;
68507;SDS011;55510;49.560;19.090;2023-02-28T10:46:33;11.83;;;6.27;;
68507;SDS011;55510;49.560;19.090;2023-02-28T10:49:34;12.07;;;5.63;;
68507;SDS011;55510;49.560;19.090;2023-02-28T10:52:39;9.93;;;6.18;;
68507;SDS011;55510;49.560;19.090;2023-02-28T10:55:40;11.07;;;7.15;;
68507;SDS011;55510;49.560;19.090;2023-02-28T11:01:56;10.20;;;6.13;;
68507;SDS011;55510;49.560;19.090;2023-02-28T11:04:57;11.45;;;5.80;;
68507;SDS011;55510;49.560;19.090;2023-02-28T11:11:18;13.73;;;6.80;;
68507;SDS011;55510;49.560;19.090;2023-02-28T11:14:24;11.52;;;5.95;;
68507;SDS011;55510;49.560;19.090;2023-02-28T11:17:28;12.18;;;6.22;;
68507;SDS011;55510;49.560;19.090;2023-02-28T11:20:32;10.73;;;6.18;;
68507;SDS011;55510;49.560;19.090;2023-02-28T11:23:34;13.38;;;6.35;;
68507;SDS011;55510;49.560;19.090;2023-02-28T11:26:38;13.73;;;7.73;;
68507;SDS011;55510;49.560;19.090;2023-02-28T11:29:46;12.00;;;6.68;;
68507;SDS011;55510;49.560;19.090;2023-02-28T11:32:48;13.52;;;7.38;;
68507;SDS011;55510;49.560;19.090;2023-02-28T11:35:51;10.88;;;6.03;;
68507;SDS011;55510;49.560;19.090;2023-02-28T11:38:59;14.43;;;7.93;;
68507;SDS011;55510;49.560;19.090;2023-02-28T11:48:36;13.80;;;8.23;;
68507;SDS011;55510;49.560;19.090;2023-02-28T11:55:38;12.00;;;6.15;;
68507;SDS011;55510;49.560;19.090;2023-02-28T11:58:50;11.83;;;5.43;;
68507;SDS011;55510;49.560;19.090;2023-02-28T12:05:14;11.95;;;6.78;;
68507;SDS011;55510;49.560;19.090;2023-02-28T12:08:27;11.73;;;6.50;;
68507;SDS011;55510;49.560;19.090;2023-02-28T12:15:18;11.47;;;6.10;;
68507;SDS011;55510;49.560;19.090;2023-02-28T12:18:35;10.38;;;6.35;;
68507;SDS011;55510;49.560;19.090;2023-02-28T12:28:21;10.40;;;6.22;;
68507;SDS011;55510;49.560;19.090;2023-02-28T12:31:28;14.80;;;8.57;;
68507;SDS011;55510;49.560;19.090;2023-02-28T12:34:33;12.93;;;6.97;;
68507;SDS011;55510;49.560;19.090;2023-02-28T12:37:38;10.32;;;5.97;;
68507;SDS011;55510;49.560;19.090;2023-02-28T12:40:51;11.85;;;6.32;;
68507;SDS011;55510;49.560;19.090;2023-02-28T12:44:30;11.70;;;6.68;;
68507;SDS011;55510;49.560;19.090;2023-02-28T12:47:29;11.80;;;6.17;;
68507;SDS011;55510;49.560;19.090;2023-02-28T12:50:30;11.43;;;6.93;;
68507;SDS011;55510;49.560;19.090;2023-02-28T12:59:56;11.55;;;6.68;;
68507;SDS011;55510;49.560;19.090;2023-02-28T13:09:56;14.95;;;8.18;;
68507;SDS011;55510;49.560;19.090;2023-02-28T13:13:01;13.00;;;6.83;;
68507;SDS011;55510;49.560;19.090;2023-02-28T13:16:10;13.43;;;7.05;;
68507;SDS011;55510;49.560;19.090;2023-02-28T13:19:11;17.10;;;7.40;;
68507;SDS011;55510;49.560;19.090;2023-02-28T13:22:19;13.43;;;6.33;;
68507;SDS011;55510;49.560;19.090;2023-02-28T13:28:58;17.03;;;6.70;;
68507;SDS011;55510;49.560;19.090;2023-02-28T13:38:15;10.07;;;5.50;;
68507;SDS011;55510;49.560;19.090;2023-02-28T13:44:31;12.95;;;6.20;;
68507;SDS011;55510;49.560;19.090;2023-02-28T13:48:16;15.35;;;7.05;;
68507;SDS011;55510;49.560;19.090;2023-02-28T14:01:30;13.82;;;7.13;;
68507;SDS011;55510;49.560;19.090;2023-02-28T14:07:49;16.93;;;7.70;;
68507;SDS011;55510;49.560;19.090;2023-02-28T14:11:04;16.57;;;6.83;;
68507;SDS011;55510;49.560;19.090;2023-02-28T14:14:08;15.82;;;7.25;;
68507;SDS011;55510;49.560;19.090;2023-02-28T14:17:14;15.88;;;6.97;;
68507;SDS011;55510;49.560;19.090;2023-02-28T14:20:17;15.55;;;7.05;;
68507;SDS011;55510;49.560;19.090;2023-02-28T14:33:26;32.47;;;14.88;;
68507;SDS011;55510;49.560;19.090;2023-02-28T14:36:35;20.50;;;8.10;;
68507;SDS011;55510;49.560;19.090;2023-02-28T14:39:39;15.90;;;7.30;;
68507;SDS011;55510;49.560;19.090;2023-02-28T14:42:45;14.83;;;6.80;;
68507;SDS011;55510;49.560;19.090;2023-02-28T14:45:49;17.08;;;7.63;;
68507;SDS011;55510;49.560;19.090;2023-02-28T14:48:52;18.00;;;8.35;;
68507;SDS011;55510;49.560;19.090;2023-02-28T14:55:12;20.87;;;8.53;;
68507;SDS011;55510;49.560;19.090;2023-02-28T14:58:27;18.60;;;8.43;;
68507;SDS011;55510;49.560;19.090;2023-02-28T15:01:30;19.27;;;7.20;;
68507;SDS011;55510;49.560;19.090;2023-02-28T15:04:33;18.65;;;8.65;;
68507;SDS011;55510;49.560;19.090;2023-02-28T15:07:35;19.20;;;9.10;;
68507;SDS011;55510;49.560;19.090;2023-02-28T15:10:36;15.93;;;7.30;;
68507;SDS011;55510;49.560;19.090;2023-02-28T15:13:53;21.73;;;8.30;;
68507;SDS011;55510;49.560;19.090;2023-02-28T15:16:58;18.05;;;7.90;;
68507;SDS011;55510;49.560;19.090;2023-02-28T15:20:02;17.65;;;7.60;;
68507;SDS011;55510;49.560;19.090;2023-02-28T15:23:03;21.58;;;9.25;;
68507;SDS011;55510;49.560;19.090;2023-02-28T15:26:04;26.33;;;11.90;;
68507;SDS011;55510;49.560;19.090;2023-02-28T15:29:16;20.15;;;8.75;;
68507;SDS011;55510;49.560;19.090;2023-02-28T15:35:34;18.07;;;7.17;;
68507;SDS011;55510;49.560;19.090;2023-02-28T15:38:35;15.40;;;6.93;;
68507;SDS011;55510;49.560;19.090;2023-02-28T15:41:37;18.55;;;8.02;;
68507;SDS011;55510;49.560;19.090;2023-02-28T15:44:38;20.02;;;9.38;;
68507;SDS011;55510;49.560;19.090;2023-02-28T15:47:44;16.43;;;8.07;;
68507;SDS011;55510;49.560;19.090;2023-02-28T15:50:47;21.00;;;9.02;;
68507;SDS011;55510;49.560;19.090;2023-02-28T15:53:57;28.33;;;11.75;;
68507;SDS011;55510;49.560;19.090;2023-02-28T15:57:05;25.90;;;10.45;;
68507;SDS011;55510;49.560;19.090;2023-02-28T16:00:12;27.45;;;11.40;;
68507;SDS011;55510;49.560;19.090;2023-02-28T16:03:32;33.63;;;14.63;;
68507;SDS011;55510;49.560;19.090;2023-02-28T16:06:42;38.63;;;16.25;;
68507;SDS011;55510;49.560;19.090;2023-02-28T16:09:44;46.58;;;18.35;;
68507;SDS011;55510;49.560;19.090;2023-02-28T16:12:45;44.45;;;16.90;;
68507;SDS011;55510;49.560;19.090;2023-02-28T16:15:46;42.37;;;14.43;;
68507;SDS011;55510;49.560;19.090;2023-02-28T16:18:46;52.80;;;21.70;;
68507;SDS011;55510;49.560;19.090;2023-02-28T16:21:47;61.33;;;25.20;;
68507;SDS011;55510;49.560;19.090;2023-02-28T16:24:49;63.63;;;25.75;;
68507;SDS011;55510;49.560;19.090;2023-02-28T16:27:50;76.67;;;30.77;;
68507;SDS011;55510;49.560;19.090;2023-02-28T16:30:54;71.03;;;32.83;;
68507;SDS011;55510;49.560;19.090;2023-02-28T16:33:55;63.97;;;30.23;;
68507;SDS011;55510;49.560;19.090;2023-02-28T16:36:56;55.72;;;25.75;;
68507;SDS011;55510;49.560;19.090;2023-02-28T16:39:57;52.83;;;21.38;;
68507;SDS011;55510;49.560;19.090;2023-02-28T16:42:58;67.67;;;25.70;;
68507;SDS011;55510;49.560;19.090;2023-02-28T16:46:00;60.40;;;26.03;;
68507;SDS011;55510;49.560;19.090;2023-02-28T16:49:03;147.07;;;47.15;;
68507;SDS011;55510;49.560;19.090;2023-02-28T16:52:04;163.33;;;52.17;;
68507;SDS011;55510;49.560;19.090;2023-02-28T16:55:06;169.50;;;56.00;;
68507;SDS011;55510;49.560;19.090;2023-02-28T16:58:10;204.70;;;62.65;;
68507;SDS011;55510;49.560;19.090;2023-02-28T17:01:15;181.32;;;61.60;;
68507;SDS011;55510;49.560;19.090;2023-02-28T17:04:17;151.13;;;55.87;;
68507;SDS011;55510;49.560;19.090;2023-02-28T17:07:18;136.77;;;48.10;;
68507;SDS011;55510;49.560;19.090;2023-02-28T17:10:20;171.07;;;66.05;;
68507;SDS011;55510;49.560;19.090;2023-02-28T17:13:23;138.03;;;56.97;;
68507;SDS011;55510;49.560;19.090;2023-02-28T17:16:31;105.65;;;43.97;;
68507;SDS011;55510;49.560;19.090;2023-02-28T17:19:33;162.88;;;57.38;;
68507;SDS011;55510;49.560;19.090;2023-02-28T17:22:36;135.05;;;48.35;;
68507;SDS011;55510;49.560;19.090;2023-02-28T17:25:36;105.07;;;38.37;;
68507;SDS011;55510;49.560;19.090;2023-02-28T17:28:37;86.70;;;32.03;;
68507;SDS011;55510;49.560;19.090;2023-02-28T17:31:39;83.47;;;31.93;;
68507;SDS011;55510;49.560;19.090;2023-02-28T17:34:39;76.93;;;27.48;;
68507;SDS011;55510;49.560;19.090;2023-02-28T17:37:40;69.00;;;26.40;;
68507;SDS011;55510;49.560;19.090;2023-02-28T17:40:41;64.28;;;25.60;;
68507;SDS011;55510;49.560;19.090;2023-02-28T17:43:42;87.80;;;29.88;;
68507;SDS011;55510;49.560;19.090;2023-02-28T17:46:43;97.60;;;31.43;;
68507;SDS011;55510;49.560;19.090;2023-02-28T17:49:45;100.95;;;34.67;;
68507;SDS011;55510;49.560;19.090;2023-02-28T17:52:45;104.23;;;34.60;;
68507;SDS011;55510;49.560;19.090;2023-02-28T17:55:46;114.50;;;37.00;;
68507;SDS011;55510;49.560;19.090;2023-02-28T17:58:47;102.20;;;32.67;;
68507;SDS011;55510;49.560;19.090;2023-02-28T18:01:48;101.40;;;33.65;;
68507;SDS011;55510;49.560;19.090;2023-02-28T18:04:49;101.70;;;33.20;;
68507;SDS011;55510;49.560;19.090;2023-02-28T18:07:50;93.38;;;34.28;;
68507;SDS011;55510;49.560;19.090;2023-02-28T18:10:51;99.05;;;33.08;;
68507;SDS011;55510;49.560;19.090;2023-02-28T18:13:55;98.33;;;34.33;;
68507;SDS011;55510;49.560;19.090;2023-02-28T18:16:56;103.13;;;34.90;;
68507;SDS011;55510;49.560;19.090;2023-02-28T18:19:58;92.95;;;33.35;;
68507;SDS011;55510;49.560;19.090;2023-02-28T18:22:59;84.43;;;30.75;;
68507;SDS011;55510;49.560;19.090;2023-02-28T18:26:00;87.07;;;28.93;;
68507;SDS011;55510;49.560;19.090;2023-02-28T18:29:01;78.75;;;27.58;;
68507;SDS011;55510;49.560;19.090;2023-02-28T18:32:02;75.47;;;28.48;;
68507;SDS011;55510;49.560;19.090;2023-02-28T18:35:03;81.57;;;28.88;;
68507;SDS011;55510;49.560;19.090;2023-02-28T18:38:05;96.30;;;35.45;;
68507;SDS011;55510;49.560;19.090;2023-02-28T18:41:08;117.25;;;42.10;;
68507;SDS011;55510;49.560;19.090;2023-02-28T18:44:09;122.83;;;40.37;;
68507;SDS011;55510;49.560;19.090;2023-02-28T18:47:10;102.93;;;37.78;;
68507;SDS011;55510;49.560;19.090;2023-02-28T18:50:11;107.03;;;36.95;;
68507;SDS011;55510;49.560;19.090;2023-02-28T18:53:12;109.13;;;38.57;;
68507;SDS011;55510;49.560;19.090;2023-02-28T18:56:16;117.80;;;41.70;;
68507;SDS011;55510;49.560;19.090;2023-02-28T18:59:18;111.93;;;40.15;;
68507;SDS011;55510;49.560;19.090;2023-02-28T19:02:19;109.35;;;38.40;;
68507;SDS011;55510;49.560;19.090;2023-02-28T19:05:20;106.97;;;36.93;;
68507;SDS011;55510;49.560;19.090;2023-02-28T19:08:21;92.38;;;34.50;;
68507;SDS011;55510;49.560;19.090;2023-02-28T19:11:23;90.10;;;34.40;;
68507;SDS011;55510;49.560;19.090;2023-02-28T19:14:24;103.80;;;37.43;;
68507;SDS011;55510;49.560;19.090;2023-02-28T19:17:24;132.50;;;42.97;;
68507;SDS011;55510;49.560;19.090;2023-02-28T19:20:26;119.63;;;38.65;;
68507;SDS011;55510;49.560;19.090;2023-02-28T19:23:26;119.70;;;38.67;;
68507;SDS011;55510;49.560;19.090;2023-02-28T19:26:28;120.43;;;38.45;;
68507;SDS011;55510;49.560;19.090;2023-02-28T19:29:28;108.30;;;36.67;;
68507;SDS011;55510;49.560;19.090;2023-02-28T19:32:29;111.68;;;39.05;;
68507;SDS011;55510;49.560;19.090;2023-02-28T19:35:30;128.33;;;43.67;;
68507;SDS011;55510;49.560;19.090;2023-02-28T19:38:31;142.30;;;50.65;;
68507;SDS011;55510;49.560;19.090;2023-02-28T19:41:32;142.32;;;49.83;;
68507;SDS011;55510;49.560;19.090;2023-02-28T19:44:35;137.90;;;45.55;;
68507;SDS011;55510;49.560;19.090;2023-02-28T19:47:36;147.65;;;49.35;;
68507;SDS011;55510;49.560;19.090;2023-02-28T19:50:38;166.90;;;55.47;;
68507;SDS011;55510;49.560;19.090;2023-02-28T19:53:40;169.65;;;59.58;;